Aviation Digital Data Service (ADDS)

Output produced by TAFs form (1149 UTC 27 May 2017)
found at http://www.aviationweather.gov/adds/tafs/
 
METAR text: RJBE 271100Z 34005KT 9999 FEW025 BKN060 20/14 Q1011
Conditions at: RJBE (KOBE , JP) observed 1100 UTC 27 May 2017
Temperature: 20.0°C (68°F)
Dewpoint: 14.0°C (57°F) [RH = 68%]
Pressure (altimeter): 29.85 inches Hg (1011.0 mb)
Winds: from the NNW (340 degrees) at 6 MPH (5 knots; 2.6 m/s)
Visibility: 6 or more miles (10+ km)
Ceiling: 6000 feet AGL
Clouds: few clouds at 2500 feet AGL
broken clouds at 6000 feet AGL
Weather: no significant weather observed at this time